createdAt,value
2023-03-29T00:06:50.577Z,-0.14
2023-03-29T00:17:02.898Z,-0.42
2023-03-29T00:27:09.778Z,-0.60
2023-03-29T00:37:19.015Z,-0.97
2023-03-29T00:47:32.762Z,-0.87
2023-03-29T00:57:39.716Z,-0.51
2023-03-29T01:07:53.783Z,-0.42
2023-03-29T01:17:58.361Z,-0.66
2023-03-29T01:28:26.776Z,-0.86
2023-03-29T01:38:43.227Z,-0.57
2023-03-29T01:48:58.136Z,-0.36
2023-03-29T01:59:09.463Z,-0.45
2023-03-29T02:09:12.885Z,-0.56
2023-03-29T02:19:18.900Z,-0.56
2023-03-29T02:29:22.308Z,-0.92
2023-03-29T02:39:29.150Z,-1.12
2023-03-29T02:49:38.534Z,-1.00
2023-03-29T02:59:44.226Z,-1.14
2023-03-29T03:09:49.940Z,-1.06
2023-03-29T03:19:53.275Z,-1.29
2023-03-29T03:30:00.178Z,-1.27
2023-03-29T03:40:28.321Z,-0.92
2023-03-29T03:50:44.029Z,-1.53
2023-03-29T04:00:50.415Z,-1.25
2023-03-29T04:11:09.242Z,-0.88
2023-03-29T04:21:13.988Z,-0.81
2023-03-29T04:31:21.977Z,-0.87
2023-03-29T04:41:32.729Z,-0.48
2023-03-29T04:51:51.015Z,-0.59
2023-03-29T05:01:58.075Z,-0.43
2023-03-29T05:12:01.504Z,-0.15
2023-03-29T05:22:09.847Z,0.31
2023-03-29T05:32:13.632Z,0.42
2023-03-29T05:42:19.342Z,0.85
2023-03-29T05:52:28.678Z,0.67
2023-03-29T06:02:31.892Z,0.92
2023-03-29T06:12:35.617Z,0.81
2023-03-29T06:22:40.054Z,1.30
2023-03-29T06:32:43.256Z,1.75
2023-03-29T06:42:59.460Z,1.87
2023-03-29T07:03:34.956Z,3.25
2023-03-29T07:13:40.298Z,3.76
2023-03-29T07:23:44.401Z,4.20
2023-03-29T07:33:52.570Z,4.74
2023-03-29T07:43:55.907Z,5.25
2023-03-29T07:54:00.765Z,5.34
2023-03-29T08:04:15.999Z,5.53
2023-03-29T08:14:37.219Z,5.77
2023-03-29T08:24:47.081Z,5.60
2023-03-29T08:34:51.008Z,6.08
2023-03-29T08:45:01.379Z,6.28
2023-03-29T08:55:15.564Z,6.06
2023-03-29T09:05:48.262Z,6.65
2023-03-29T09:16:38.057Z,7.62
2023-03-29T09:26:54.840Z,7.32
2023-03-29T09:37:34.748Z,6.99
2023-03-29T09:47:53.157Z,7.53
2023-03-29T09:58:00.700Z,8.21
2023-03-29T10:08:20.015Z,8.50
2023-03-29T10:18:26.538Z,8.64
2023-03-29T10:28:31.676Z,8.99
2023-03-29T10:38:36.423Z,9.24
2023-03-29T10:48:45.973Z,9.45
2023-03-29T10:59:01.184Z,10.09
2023-03-29T11:09:16.296Z,10.24
2023-03-29T11:19:57.622Z,10.40
2023-03-29T11:30:19.156Z,9.84
2023-03-29T11:41:02.591Z,10.54
2023-03-29T11:51:13.339Z,12.13
2023-03-29T12:01:24.982Z,11.05
2023-03-29T12:11:40.843Z,10.76
2023-03-29T12:21:46.253Z,10.59
2023-03-29T12:32:06.407Z,10.49
2023-03-29T12:42:21.801Z,10.11
2023-03-29T12:53:47.895Z,9.45
2023-03-29T13:04:01.788Z,9.33
2023-03-29T13:14:18.185Z,9.10
2023-03-29T13:25:11.641Z,8.79
2023-03-29T13:35:46.856Z,8.63
2023-03-29T13:56:25.621Z,8.50
2023-03-29T14:06:33.320Z,8.27
2023-03-29T14:16:39.127Z,8.16
2023-03-29T14:26:46.043Z,8.58
2023-03-29T14:36:50.062Z,8.52
2023-03-29T14:46:54.410Z,8.44
2023-03-29T14:56:58.146Z,8.22
2023-03-29T15:07:01.279Z,8.31
2023-03-29T15:17:22.766Z,8.05
2023-03-29T15:27:25.702Z,8.00
2023-03-29T15:37:28.490Z,7.91
2023-03-29T15:47:31.394Z,7.79
2023-03-29T15:57:34.642Z,7.70
2023-03-29T16:07:37.640Z,7.90
2023-03-29T16:17:40.296Z,8.12
2023-03-29T16:27:44.113Z,7.84
2023-03-29T16:37:46.820Z,7.87
2023-03-29T16:47:49.347Z,7.66
2023-03-29T16:57:52.548Z,7.75
2023-03-29T17:07:58.081Z,7.73
2023-03-29T17:18:00.746Z,7.57
2023-03-29T17:28:03.959Z,7.69
2023-03-29T17:38:06.631Z,7.42
2023-03-29T17:48:09.170Z,7.56
2023-03-29T17:58:11.908Z,7.20
2023-03-29T18:08:15.065Z,6.91
2023-03-29T18:18:17.756Z,7.04
2023-03-29T18:28:20.651Z,6.99
2023-03-29T18:38:23.235Z,7.07
2023-03-29T18:48:27.401Z,6.41
2023-03-29T18:58:30.966Z,6.51
2023-03-29T19:08:35.495Z,6.42
2023-03-29T19:18:38.441Z,6.84
2023-03-29T19:28:42.128Z,6.75
2023-03-29T19:38:48.164Z,6.64
2023-03-29T19:48:55.788Z,6.56
2023-03-29T19:59:21.825Z,6.55
2023-03-29T20:09:38.265Z,6.73
2023-03-29T20:19:44.142Z,6.38
2023-03-29T20:29:47.695Z,6.69
2023-03-29T20:39:50.591Z,6.30
2023-03-29T20:49:56.839Z,6.48
2023-03-29T20:59:59.283Z,6.42
2023-03-29T21:10:02.754Z,6.42
2023-03-29T21:20:10.362Z,6.32
2023-03-29T21:30:13.193Z,6.45
2023-03-29T21:40:15.779Z,6.49
2023-03-29T21:50:18.522Z,6.09
2023-03-29T22:00:22.348Z,6.23
2023-03-29T22:10:25.419Z,6.19
2023-03-29T22:20:28.055Z,5.96
2023-03-29T22:30:31.072Z,5.91
2023-03-29T22:40:33.548Z,5.63
2023-03-29T22:50:37.042Z,5.41
2023-03-29T23:00:39.533Z,4.93
2023-03-29T23:10:42.343Z,5.07
2023-03-29T23:20:47.241Z,5.01
2023-03-29T23:31:09.499Z,4.97
2023-03-29T23:41:13.688Z,4.58
2023-03-29T23:51:23.052Z,4.38
